LN2527 OKKK-OBBI
Flight info
| Callsign | LN2527 |
|---|---|
| Flight time | 1h 8m |
| Altitude | 25000 |
| Route | BOXIK B416 IMDOX P975 LONOS L703 KOBOK |
| Aircraft | B736/M-VGDW/C |
Departure
| Time | 2026-04-27 16:17 |
|---|---|
| Airport | Kuwait International Airport (OKKK) |
Arrival
| Time | 2026-04-27 17:25 |
|---|---|
| Airport | Bahrain International Airport (OBBI) |
| Time | Latitude | Longitude | Altitude | Speed | Heading |
|---|---|---|---|---|---|
| 2026-04-27 15:43 | 29.24332 | 47.96474 | 166 ft | 0 kts | 335° |
| 2026-04-27 16:07 | 29.24324 | 47.96478 | 166 ft | 2 kts | 335° |
| 2026-04-27 16:07 | 29.24309 | 47.96486 | 166 ft | 2 kts | 335° |
| 2026-04-27 16:08 | 29.24294 | 47.96494 | 166 ft | 2 kts | 335° |
| 2026-04-27 16:08 | 29.24280 | 47.96502 | 166 ft | 2 kts | 335° |
| 2026-04-27 16:08 | 29.24266 | 47.96512 | 166 ft | 2 kts | 297° |
| 2026-04-27 16:08 | 29.24263 | 47.96530 | 166 ft | 2 kts | 257° |
| 2026-04-27 16:09 | 29.24268 | 47.96544 | 166 ft | 0 kts | 231° |
| 2026-04-27 16:14 | 29.24264 | 47.96538 | 166 ft | 2 kts | 231° |
| 2026-04-27 16:15 | 29.24236 | 47.96482 | 165 ft | 6 kts | 247° |
| 2026-04-27 16:15 | 29.24184 | 47.96353 | 163 ft | 12 kts | 245° |
| 2026-04-27 16:16 | 29.24070 | 47.96192 | 159 ft | 15 kts | 186° |
| 2026-04-27 16:16 | 29.23527 | 47.96432 | 161 ft | 102 kts | 155° |
| 2026-04-27 16:17 | 29.21785 | 47.97364 | 1025 ft | 142 kts | 154° |
| 2026-04-27 16:17 | 29.20260 | 47.99186 | 2044 ft | 189 kts | 123° |
| 2026-04-27 16:18 | 29.18804 | 48.02255 | 2611 ft | 252 kts | 123° |
| 2026-04-27 16:18 | 29.17044 | 48.05987 | 3715 ft | 267 kts | 124° |
| 2026-04-27 16:19 | 29.16156 | 48.07870 | 3967 ft | 270 kts | 124° |
| 2026-04-27 16:19 | 29.15298 | 48.09789 | 3996 ft | 276 kts | 115° |
| 2026-04-27 16:20 | 29.15090 | 48.16616 | 6586 ft | 291 kts | 95° |
| 2026-04-27 16:20 | 29.15100 | 48.18939 | 7455 ft | 295 kts | 94° |
| 2026-04-27 16:20 | 29.15112 | 48.23628 | 7993 ft | 295 kts | 93° |
| 2026-04-27 16:21 | 29.14981 | 48.25928 | 8031 ft | 284 kts | 110° |
| 2026-04-27 16:21 | 29.11796 | 48.31709 | 10040 ft | 294 kts | 127° |
| 2026-04-27 16:22 | 29.10625 | 48.33694 | 10624 ft | 311 kts | 127° |
| 2026-04-27 16:22 | 29.08047 | 48.38111 | 11503 ft | 347 kts | 126° |
| 2026-04-27 16:22 | 29.06711 | 48.40427 | 12325 ft | 351 kts | 126° |
| 2026-04-27 16:23 | 29.05360 | 48.42778 | 13142 ft | 356 kts | 126° |
| 2026-04-27 16:23 | 29.02615 | 48.47568 | 14457 ft | 363 kts | 125° |
| 2026-04-27 16:23 | 29.01217 | 48.50005 | 14761 ft | 369 kts | 125° |
| 2026-04-27 16:24 | 28.99827 | 48.52428 | 14779 ft | 369 kts | 125° |
| 2026-04-27 16:24 | 28.97019 | 48.57322 | 14798 ft | 368 kts | 125° |
| 2026-04-27 16:25 | 28.94206 | 48.62217 | 14797 ft | 369 kts | 125° |
| 2026-04-27 16:25 | 28.91390 | 48.67112 | 14793 ft | 369 kts | 125° |
| 2026-04-27 16:26 | 28.88568 | 48.72012 | 14801 ft | 370 kts | 125° |
| 2026-04-27 16:26 | 28.85694 | 48.76992 | 15403 ft | 382 kts | 126° |
| 2026-04-27 16:27 | 28.82749 | 48.82092 | 16992 ft | 389 kts | 126° |
| 2026-04-27 16:27 | 28.78196 | 48.89962 | 18740 ft | 404 kts | 127° |
| 2026-04-27 16:28 | 28.75087 | 48.95332 | 18811 ft | 406 kts | 127° |
| 2026-04-27 16:28 | 28.71987 | 49.00684 | 18801 ft | 400 kts | 127° |
| 2026-04-27 16:29 | 28.67375 | 49.08623 | 18828 ft | 402 kts | 127° |
| 2026-04-27 16:30 | 28.64279 | 49.13945 | 18817 ft | 402 kts | 127° |
| 2026-04-27 16:30 | 28.61213 | 49.19210 | 18815 ft | 401 kts | 127° |
| 2026-04-27 16:31 | 28.55564 | 49.25953 | 18818 ft | 389 kts | 153° |
| 2026-04-27 16:31 | 28.50788 | 49.28806 | 18816 ft | 390 kts | 153° |
| 2026-04-27 16:32 | 28.46545 | 49.32707 | 18818 ft | 397 kts | 142° |
| 2026-04-27 16:32 | 28.44466 | 49.34835 | 18816 ft | 397 kts | 142° |
| 2026-04-27 16:33 | 28.40358 | 49.39000 | 18810 ft | 398 kts | 142° |
| 2026-04-27 16:33 | 28.38276 | 49.41081 | 18815 ft | 399 kts | 143° |
| 2026-04-27 16:33 | 28.36188 | 49.43155 | 18817 ft | 399 kts | 143° |
| 2026-04-27 16:33 | 28.34090 | 49.45233 | 18817 ft | 399 kts | 143° |
| 2026-04-27 16:34 | 28.31995 | 49.47306 | 18817 ft | 399 kts | 143° |
| 2026-04-27 16:34 | 28.29896 | 49.49382 | 18816 ft | 399 kts | 143° |
| 2026-04-27 16:34 | 28.27799 | 49.51450 | 18815 ft | 399 kts | 143° |
| 2026-04-27 16:34 | 28.25701 | 49.53519 | 18803 ft | 399 kts | 143° |
| 2026-04-27 16:35 | 28.23629 | 49.55560 | 18810 ft | 399 kts | 143° |
| 2026-04-27 16:35 | 28.21522 | 49.57620 | 18815 ft | 399 kts | 144° |
| 2026-04-27 16:35 | 28.17129 | 49.61460 | 18820 ft | 398 kts | 148° |
| 2026-04-27 16:36 | 28.14900 | 49.63338 | 18821 ft | 399 kts | 148° |
| 2026-04-27 16:36 | 28.12674 | 49.65222 | 18822 ft | 399 kts | 147° |
| 2026-04-27 16:36 | 28.10455 | 49.67117 | 18816 ft | 399 kts | 147° |
| 2026-04-27 16:36 | 28.08243 | 49.69015 | 18808 ft | 399 kts | 147° |
| 2026-04-27 16:37 | 28.06026 | 49.70919 | 18813 ft | 400 kts | 147° |
| 2026-04-27 16:37 | 28.03800 | 49.72811 | 18822 ft | 400 kts | 148° |
| 2026-04-27 16:37 | 28.01550 | 49.74596 | 18823 ft | 399 kts | 150° |
| 2026-04-27 16:37 | 27.99246 | 49.76362 | 18822 ft | 399 kts | 150° |
| 2026-04-27 16:38 | 27.96940 | 49.78120 | 18819 ft | 399 kts | 150° |
| 2026-04-27 16:38 | 27.94637 | 49.79886 | 18811 ft | 399 kts | 150° |
| 2026-04-27 16:38 | 27.92343 | 49.81657 | 18817 ft | 399 kts | 150° |
| 2026-04-27 16:38 | 27.90048 | 49.83436 | 18807 ft | 399 kts | 150° |
| 2026-04-27 16:39 | 27.87760 | 49.85213 | 18811 ft | 399 kts | 150° |
| 2026-04-27 16:39 | 27.85468 | 49.86993 | 18812 ft | 399 kts | 150° |
| 2026-04-27 16:39 | 27.83206 | 49.88747 | 18817 ft | 399 kts | 150° |
| 2026-04-27 16:39 | 27.80913 | 49.90524 | 18816 ft | 399 kts | 150° |
| 2026-04-27 16:40 | 27.78622 | 49.92296 | 18818 ft | 399 kts | 150° |
| 2026-04-27 16:40 | 27.76328 | 49.94070 | 18811 ft | 399 kts | 150° |
| 2026-04-27 16:40 | 27.74037 | 49.95841 | 18807 ft | 399 kts | 150° |
| 2026-04-27 16:40 | 27.71743 | 49.97614 | 18804 ft | 399 kts | 150° |
| 2026-04-27 16:41 | 27.70220 | 49.98791 | 18803 ft | 399 kts | 150° |
| 2026-04-27 16:41 | 27.67152 | 50.01161 | 18814 ft | 399 kts | 150° |
| 2026-04-27 16:41 | 27.64856 | 50.02933 | 18813 ft | 399 kts | 150° |
| 2026-04-27 16:41 | 27.62562 | 50.04703 | 18813 ft | 399 kts | 150° |
| 2026-04-27 16:42 | 27.60271 | 50.06469 | 18813 ft | 400 kts | 150° |
| 2026-04-27 16:42 | 27.58750 | 50.07642 | 18819 ft | 400 kts | 150° |
| 2026-04-27 16:42 | 27.56450 | 50.09415 | 18816 ft | 400 kts | 150° |
| 2026-04-27 16:42 | 27.54152 | 50.11184 | 18802 ft | 400 kts | 150° |
| 2026-04-27 16:43 | 27.51851 | 50.12956 | 18807 ft | 400 kts | 150° |
| 2026-04-27 16:43 | 27.49553 | 50.14725 | 18812 ft | 400 kts | 150° |
| 2026-04-27 16:43 | 27.47258 | 50.16490 | 18815 ft | 400 kts | 150° |
| 2026-04-27 16:43 | 27.44987 | 50.18235 | 18814 ft | 400 kts | 150° |
| 2026-04-27 16:44 | 27.42705 | 50.20031 | 18811 ft | 401 kts | 149° |
| 2026-04-27 16:44 | 27.40437 | 50.21873 | 18813 ft | 401 kts | 148° |
| 2026-04-27 16:44 | 27.38183 | 50.23718 | 18814 ft | 401 kts | 148° |
| 2026-04-27 16:44 | 27.35923 | 50.25564 | 18813 ft | 401 kts | 148° |
| 2026-04-27 16:45 | 27.33665 | 50.27402 | 18813 ft | 400 kts | 148° |
| 2026-04-27 16:45 | 27.31400 | 50.29240 | 18816 ft | 400 kts | 148° |
| 2026-04-27 16:45 | 27.29143 | 50.31067 | 18812 ft | 397 kts | 148° |
| 2026-04-27 16:45 | 27.26919 | 50.32867 | 18524 ft | 392 kts | 148° |
| 2026-04-27 16:46 | 27.24741 | 50.34628 | 18123 ft | 388 kts | 148° |
| 2026-04-27 16:46 | 27.22559 | 50.36390 | 17604 ft | 385 kts | 148° |
| 2026-04-27 16:46 | 27.20389 | 50.38142 | 17103 ft | 381 kts | 148° |
| 2026-04-27 16:46 | 27.18243 | 50.39873 | 16592 ft | 378 kts | 148° |
| 2026-04-27 16:47 | 27.16119 | 50.41586 | 16109 ft | 375 kts | 148° |
| 2026-04-27 16:47 | 27.14011 | 50.43286 | 15638 ft | 372 kts | 148° |
| 2026-04-27 16:47 | 27.11957 | 50.44944 | 15518 ft | 353 kts | 148° |
| 2026-04-27 16:47 | 27.10020 | 50.46509 | 15297 ft | 335 kts | 148° |
| 2026-04-27 16:48 | 27.08132 | 50.48028 | 14803 ft | 335 kts | 148° |
| 2026-04-27 16:48 | 27.06233 | 50.49553 | 14395 ft | 335 kts | 147° |
| 2026-04-27 16:48 | 27.04370 | 50.51051 | 14067 ft | 332 kts | 147° |
| 2026-04-27 16:49 | 27.00642 | 50.54049 | 13240 ft | 324 kts | 147° |
| 2026-04-27 16:49 | 26.98811 | 50.55504 | 12629 ft | 321 kts | 151° |
| 2026-04-27 16:49 | 26.96778 | 50.56400 | 12201 ft | 310 kts | 174° |
| 2026-04-27 16:49 | 26.94659 | 50.56625 | 12094 ft | 299 kts | 181° |
| 2026-04-27 16:50 | 26.92616 | 50.56716 | 12015 ft | 287 kts | 182° |
| 2026-04-27 16:50 | 26.90652 | 50.56780 | 12009 ft | 280 kts | 183° |
| 2026-04-27 16:50 | 26.88713 | 50.56842 | 12006 ft | 278 kts | 183° |
| 2026-04-27 16:50 | 26.86782 | 50.56909 | 11998 ft | 278 kts | 183° |
| 2026-04-27 16:51 | 26.84849 | 50.56983 | 11848 ft | 277 kts | 182° |
| 2026-04-27 16:51 | 26.82955 | 50.57060 | 11542 ft | 276 kts | 182° |
| 2026-04-27 16:51 | 26.81031 | 50.57141 | 11184 ft | 276 kts | 182° |
| 2026-04-27 16:51 | 26.79115 | 50.57224 | 10913 ft | 274 kts | 182° |
| 2026-04-27 16:52 | 26.77215 | 50.57309 | 10637 ft | 272 kts | 182° |
| 2026-04-27 16:52 | 26.75326 | 50.57393 | 10348 ft | 270 kts | 182° |
| 2026-04-27 16:52 | 26.73457 | 50.57477 | 10069 ft | 268 kts | 182° |
| 2026-04-27 16:52 | 26.71594 | 50.57561 | 9797 ft | 266 kts | 182° |
| 2026-04-27 16:53 | 26.69748 | 50.57645 | 9495 ft | 265 kts | 182° |
| 2026-04-27 16:53 | 26.67906 | 50.57727 | 9165 ft | 264 kts | 182° |
| 2026-04-27 16:53 | 26.66074 | 50.57810 | 8865 ft | 263 kts | 182° |
| 2026-04-27 16:53 | 26.64259 | 50.57893 | 8710 ft | 256 kts | 182° |
| 2026-04-27 16:54 | 26.62518 | 50.57973 | 8635 ft | 245 kts | 182° |
| 2026-04-27 16:54 | 26.60862 | 50.58049 | 8501 ft | 239 kts | 182° |
| 2026-04-27 16:54 | 26.59208 | 50.58123 | 8248 ft | 237 kts | 182° |
| 2026-04-27 16:54 | 26.57561 | 50.58196 | 7975 ft | 237 kts | 182° |
| 2026-04-27 16:55 | 26.55909 | 50.58270 | 7714 ft | 236 kts | 181° |
| 2026-04-27 16:55 | 26.54265 | 50.58344 | 7448 ft | 236 kts | 181° |
| 2026-04-27 16:55 | 26.52645 | 50.58681 | 7152 ft | 243 kts | 156° |
| 2026-04-27 16:55 | 26.51395 | 50.59956 | 6893 ft | 249 kts | 122° |
| 2026-04-27 16:56 | 26.50932 | 50.61819 | 6630 ft | 253 kts | 89° |
| 2026-04-27 16:56 | 26.50961 | 50.63766 | 6370 ft | 250 kts | 104° |
| 2026-04-27 16:56 | 26.50148 | 50.65429 | 6098 ft | 244 kts | 132° |
| 2026-04-27 16:56 | 26.49112 | 50.66926 | 5848 ft | 244 kts | 128° |
| 2026-04-27 16:57 | 26.48145 | 50.68479 | 5605 ft | 243 kts | 126° |
| 2026-04-27 16:57 | 26.47215 | 50.70046 | 5372 ft | 242 kts | 125° |
| 2026-04-27 16:57 | 26.46309 | 50.71599 | 5130 ft | 241 kts | 125° |
| 2026-04-27 16:57 | 26.45388 | 50.73168 | 5043 ft | 241 kts | 129° |
| 2026-04-27 16:58 | 26.44124 | 50.74322 | 5002 ft | 233 kts | 162° |
| 2026-04-27 16:58 | 26.42559 | 50.74533 | 5010 ft | 225 kts | 191° |
| 2026-04-27 16:58 | 26.41089 | 50.73985 | 5009 ft | 223 kts | 208° |
| 2026-04-27 16:58 | 26.39733 | 50.73172 | 4978 ft | 217 kts | 211° |
| 2026-04-27 16:59 | 26.38504 | 50.72281 | 4901 ft | 204 kts | 227° |
| 2026-04-27 16:59 | 26.37826 | 50.70944 | 4621 ft | 198 kts | 257° |
| 2026-04-27 16:59 | 26.37930 | 50.69433 | 4215 ft | 201 kts | 293° |
| 2026-04-27 16:59 | 26.38634 | 50.68110 | 3865 ft | 201 kts | 302° |
| 2026-04-27 17:00 | 26.39936 | 50.65931 | 3283 ft | 201 kts | 303° |
| 2026-04-27 17:00 | 26.40952 | 50.64211 | 3048 ft | 204 kts | 302° |
| 2026-04-27 17:00 | 26.41750 | 50.62885 | 3020 ft | 207 kts | 303° |
| 2026-04-27 17:01 | 26.42553 | 50.61556 | 3001 ft | 204 kts | 303° |
| 2026-04-27 17:01 | 26.43344 | 50.60251 | 2996 ft | 203 kts | 303° |
| 2026-04-27 17:01 | 26.44137 | 50.58942 | 2999 ft | 204 kts | 303° |
| 2026-04-27 17:01 | 26.44935 | 50.57624 | 2996 ft | 205 kts | 303° |
| 2026-04-27 17:02 | 26.45732 | 50.56306 | 3000 ft | 205 kts | 303° |
| 2026-04-27 17:02 | 26.46523 | 50.54996 | 3009 ft | 203 kts | 301° |
| 2026-04-27 17:02 | 26.46950 | 50.53548 | 2989 ft | 200 kts | 267° |
| 2026-04-27 17:02 | 26.46505 | 50.52119 | 2997 ft | 197 kts | 230° |
| 2026-04-27 17:03 | 26.45444 | 50.51157 | 3009 ft | 198 kts | 214° |
| 2026-04-27 17:03 | 26.44285 | 50.50309 | 3002 ft | 200 kts | 213° |
| 2026-04-27 17:03 | 26.43108 | 50.49461 | 2997 ft | 202 kts | 213° |
| 2026-04-27 17:03 | 26.41924 | 50.48611 | 2990 ft | 203 kts | 213° |
| 2026-04-27 17:04 | 26.40705 | 50.47816 | 2980 ft | 203 kts | 204° |
| 2026-04-27 17:04 | 26.39400 | 50.47216 | 2985 ft | 203 kts | 202° |
| 2026-04-27 17:04 | 26.38043 | 50.46833 | 2978 ft | 200 kts | 182° |
| 2026-04-27 17:04 | 26.36756 | 50.47200 | 2876 ft | 191 kts | 142° |
| 2026-04-27 17:05 | 26.35900 | 50.48280 | 2687 ft | 182 kts | 130° |
| 2026-04-27 17:05 | 26.35134 | 50.49367 | 2462 ft | 175 kts | 126° |
| 2026-04-27 17:05 | 26.34470 | 50.50453 | 2254 ft | 165 kts | 123° |
| 2026-04-27 17:05 | 26.33876 | 50.51481 | 2045 ft | 153 kts | 123° |
| 2026-04-27 17:06 | 26.33329 | 50.52437 | 1886 ft | 138 kts | 123° |
| 2026-04-27 17:06 | 26.32803 | 50.53356 | 1704 ft | 141 kts | 122° |
| 2026-04-27 17:06 | 26.32280 | 50.54270 | 1532 ft | 138 kts | 122° |
| 2026-04-27 17:06 | 26.31769 | 50.55165 | 1348 ft | 136 kts | 123° |
| 2026-04-27 17:07 | 26.31262 | 50.56051 | 1186 ft | 135 kts | 123° |
| 2026-04-27 17:07 | 26.30757 | 50.56934 | 1006 ft | 135 kts | 123° |
| 2026-04-27 17:07 | 26.30249 | 50.57822 | 837 ft | 136 kts | 123° |
| 2026-04-27 17:07 | 26.29755 | 50.58689 | 675 ft | 133 kts | 122° |
| 2026-04-27 17:08 | 26.29247 | 50.59557 | 545 ft | 133 kts | 122° |
| 2026-04-27 17:08 | 26.28754 | 50.60439 | 393 ft | 136 kts | 122° |
| 2026-04-27 17:08 | 26.28256 | 50.61328 | 190 ft | 134 kts | 122° |
| 2026-04-27 17:08 | 26.27761 | 50.62203 | 104 ft | 139 kts | 121° |
| 2026-04-27 17:09 | 26.27241 | 50.63148 | 550 ft | 158 kts | 121° |
| 2026-04-27 17:09 | 26.26645 | 50.64246 | 1237 ft | 161 kts | 120° |
| 2026-04-27 17:09 | 26.26117 | 50.65325 | 2075 ft | 172 kts | 117° |
| 2026-04-27 17:09 | 26.25495 | 50.66713 | 2212 ft | 223 kts | 115° |
| 2026-04-27 17:10 | 26.24621 | 50.68355 | 2373 ft | 263 kts | 127° |
| 2026-04-27 17:10 | 26.23498 | 50.69995 | 2386 ft | 272 kts | 133° |
| 2026-04-27 17:10 | 26.21935 | 50.71156 | 2353 ft | 270 kts | 162° |
| 2026-04-27 17:10 | 26.20189 | 50.71844 | 2455 ft | 267 kts | 150° |
| 2026-04-27 17:11 | 26.18835 | 50.73248 | 2504 ft | 270 kts | 127° |
| 2026-04-27 17:11 | 26.16731 | 50.76758 | 2493 ft | 272 kts | 123° |
| 2026-04-27 17:11 | 26.15707 | 50.78517 | 2492 ft | 270 kts | 124° |
| 2026-04-27 17:12 | 26.14166 | 50.82268 | 2591 ft | 266 kts | 108° |
| 2026-04-27 17:12 | 26.13640 | 50.84259 | 2963 ft | 270 kts | 105° |
| 2026-04-27 17:12 | 26.13556 | 50.86340 | 2996 ft | 276 kts | 79° |
| 2026-04-27 17:13 | 26.14348 | 50.88264 | 3004 ft | 275 kts | 50° |
| 2026-04-27 17:13 | 26.15825 | 50.89576 | 3017 ft | 272 kts | 27° |
| 2026-04-27 17:13 | 26.17534 | 50.90492 | 3009 ft | 272 kts | 24° |
| 2026-04-27 17:13 | 26.19268 | 50.91336 | 3003 ft | 271 kts | 17° |
| 2026-04-27 17:14 | 26.21115 | 50.91517 | 2999 ft | 267 kts | 348° |
| 2026-04-27 17:14 | 26.22794 | 50.90706 | 3012 ft | 264 kts | 321° |
| 2026-04-27 17:14 | 26.23996 | 50.89178 | 3013 ft | 263 kts | 305° |
| 2026-04-27 17:14 | 26.25023 | 50.87490 | 3002 ft | 263 kts | 303° |
| 2026-04-27 17:15 | 26.26032 | 50.85803 | 3006 ft | 267 kts | 303° |
| 2026-04-27 17:15 | 26.27080 | 50.84055 | 3009 ft | 269 kts | 303° |
| 2026-04-27 17:15 | 26.28107 | 50.82344 | 3002 ft | 268 kts | 303° |
| 2026-04-27 17:15 | 26.29143 | 50.80617 | 2997 ft | 267 kts | 303° |
| 2026-04-27 17:16 | 26.30174 | 50.78900 | 3002 ft | 266 kts | 303° |
| 2026-04-27 17:16 | 26.31202 | 50.77191 | 2994 ft | 265 kts | 303° |
| 2026-04-27 17:16 | 26.32229 | 50.75485 | 2991 ft | 265 kts | 303° |
| 2026-04-27 17:16 | 26.33253 | 50.73782 | 2996 ft | 264 kts | 303° |
| 2026-04-27 17:17 | 26.34276 | 50.72081 | 2901 ft | 263 kts | 303° |
| 2026-04-27 17:17 | 26.35292 | 50.70388 | 2545 ft | 263 kts | 303° |
| 2026-04-27 17:17 | 26.36306 | 50.68683 | 2186 ft | 263 kts | 303° |
| 2026-04-27 17:18 | 26.38249 | 50.65383 | 1998 ft | 242 kts | 303° |
| 2026-04-27 17:18 | 26.39150 | 50.63859 | 1987 ft | 229 kts | 303° |
| 2026-04-27 17:18 | 26.40001 | 50.62433 | 1980 ft | 217 kts | 303° |
| 2026-04-27 17:18 | 26.40817 | 50.61076 | 1993 ft | 206 kts | 303° |
| 2026-04-27 17:19 | 26.41617 | 50.59753 | 2016 ft | 205 kts | 303° |
| 2026-04-27 17:19 | 26.42416 | 50.58430 | 2023 ft | 206 kts | 303° |
| 2026-04-27 17:19 | 26.43119 | 50.57043 | 1993 ft | 206 kts | 284° |
| 2026-04-27 17:19 | 26.43070 | 50.55489 | 2000 ft | 201 kts | 246° |
| 2026-04-27 17:20 | 26.42227 | 50.54311 | 2007 ft | 198 kts | 216° |
| 2026-04-27 17:20 | 26.41103 | 50.53428 | 2009 ft | 199 kts | 213° |
| 2026-04-27 17:20 | 26.39895 | 50.52677 | 1997 ft | 199 kts | 195° |
| 2026-04-27 17:20 | 26.38559 | 50.52330 | 1989 ft | 189 kts | 193° |
| 2026-04-27 17:21 | 26.37347 | 50.52013 | 1983 ft | 173 kts | 193° |
| 2026-04-27 17:21 | 26.36208 | 50.51711 | 1994 ft | 164 kts | 193° |
| 2026-04-27 17:21 | 26.35106 | 50.51421 | 1988 ft | 161 kts | 191° |
| 2026-04-27 17:21 | 26.34031 | 50.51578 | 1988 ft | 161 kts | 143° |
| 2026-04-27 17:22 | 26.33300 | 50.52558 | 1858 ft | 167 kts | 127° |
| 2026-04-27 17:22 | 26.32653 | 50.53621 | 1648 ft | 163 kts | 124° |
| 2026-04-27 17:22 | 26.32058 | 50.54657 | 1443 ft | 153 kts | 123° |
| 2026-04-27 17:22 | 26.31526 | 50.55589 | 1284 ft | 136 kts | 124° |
| 2026-04-27 17:23 | 26.31034 | 50.56451 | 1098 ft | 128 kts | 124° |
| 2026-04-27 17:23 | 26.30546 | 50.57305 | 946 ft | 134 kts | 124° |
| 2026-04-27 17:23 | 26.30071 | 50.58184 | 802 ft | 130 kts | 123° |
| 2026-04-27 17:23 | 26.29574 | 50.59043 | 660 ft | 133 kts | 122° |
| 2026-04-27 17:24 | 26.29073 | 50.59899 | 511 ft | 132 kts | 123° |
| 2026-04-27 17:24 | 26.28592 | 50.60777 | 316 ft | 131 kts | 123° |
| 2026-04-27 17:24 | 26.28096 | 50.61616 | 127 ft | 128 kts | 123° |
| 2026-04-27 17:24 | 26.27627 | 50.62430 | 15 ft | 118 kts | 122° |
| 2026-04-27 17:25 | 26.27235 | 50.63101 | 14 ft | 86 kts | 122° |
| 2026-04-27 17:25 | 26.27054 | 50.63419 | 15 ft | 24 kts | 118° |
| 2026-04-27 17:25 | 26.26968 | 50.63485 | 14 ft | 11 kts | 190° |
| 2026-04-27 17:25 | 26.26927 | 50.63458 | 17 ft | 0 kts | 213° |
| 2026-04-27 17:26 | 26.26910 | 50.63445 | 16 ft | 4 kts | 213° |
| 2026-04-27 17:26 | 26.26887 | 50.63429 | 17 ft | 4 kts | 213° |
| 2026-04-27 17:26 | 26.26864 | 50.63412 | 18 ft | 4 kts | 213° |
| 2026-04-27 17:27 | 26.26859 | 50.63409 | 18 ft | 0 kts | 213° |
| 2026-04-27 17:27 | 26.26854 | 50.63405 | 18 ft | 3 kts | 213° |
| 2026-04-27 17:27 | 26.26813 | 50.63376 | 22 ft | 11 kts | 213° |
| 2026-04-27 17:28 | 26.26743 | 50.63389 | 20 ft | 12 kts | 127° |
| 2026-04-27 17:28 | 26.26699 | 50.63468 | 20 ft | 12 kts | 122° |
| 2026-04-27 17:28 | 26.26609 | 50.63457 | 20 ft | 7 kts | 212° |
| 2026-04-27 17:29 | 26.26590 | 50.63443 | 20 ft | 0 kts | 213° |